Time;durP1;ratioP1;P1;durP2;ratioP2;P2;SDS_P1;SDS_P2;PMS_P1;PMS_P2;Temp;Humidity;BMP_temperature;BMP_pressure;BME280_temperature;BME280_humidity;BME280_pressure;Samples;Min_cycle;Max_cycle;Signal;HPM_P1;HPM_P2
2022/04/10 00:00:48;;;;;;;6.70;2.20;;;;;;;2.85;60.27;98536.41;108569;1285;23122;-81
2022/04/10 00:03:36;;;;;;;6.10;2.10;;;;;;;2.84;60.65;98535.05;107617;1293;22545;-81
2022/04/10 00:07:11;;;;;;;5.90;1.60;;;;;;;2.85;60.34;98534.50;107526;1294;22483;-81
2022/04/10 00:10:13;;;;;;;;;;;;;;;;;;;;;
2022/04/10 00:13:04;;;;;;;5.30;1.80;;;;;;;2.81;60.85;98531.35;107410;1294;22587;-80
2022/04/10 00:16:03;;;;;;;8.40;2.70;;;;;;;2.79;61.40;98530.90;107468;1294;22612;-80
2022/04/10 00:18:35;;;;;;;7.70;2.30;;;;;;;2.78;60.79;98536.43;107409;1294;22424;-80
2022/04/10 00:21:45;;;;;;;;;;;;;;;;;;;;;
2022/04/10 00:24:41;;;;;;;5.10;2.00;;;;;;;2.77;60.33;98542.47;107522;1294;22511;-81
2022/04/10 00:28:00;;;;;;;4.90;1.50;;;;;;;2.71;60.76;98544.15;107472;1294;22519;-81
2022/04/10 00:31:15;;;;;;;;;;;;;;;;;;;;;
2022/04/10 00:34:15;;;;;;;5.80;2.20;;;;;;;2.59;60.90;98543.86;107150;1298;22238;-81
2022/04/10 00:37:26;;;;;;;5.20;2.10;;;;;;;2.57;60.57;98546.45;107177;1297;22520;-81
2022/04/10 00:40:32;;;;;;;7.50;2.20;;;;;;;2.56;60.55;98546.85;107407;1290;22522;-81
2022/04/10 00:43:43;;;;;;;;;;;;;;;;;;;;;
2022/04/10 00:47:06;;;;;;;;;;;;;;;;;;;;;
2022/04/10 00:50:35;;;;;;;;;;;;;;;;;;;;;
2022/04/10 00:53:07;;;;;;;6.00;2.50;;;;;;;2.52;61.78;98550.67;107642;1293;22663;-81
2022/04/10 00:56:08;;;;;;;;;;;;;;;;;;;;;
2022/04/10 00:58:55;;;;;;;;;;;;;;;;;;;;;
2022/04/10 01:01:49;;;;;;;7.10;2.70;;;;;;;2.58;61.46;98551.81;107914;1287;23184;-79
2022/04/10 01:04:49;;;;;;;5.70;2.30;;;;;;;2.60;61.25;98549.42;108283;1287;22962;-80
2022/04/10 01:07:20;;;;;;;9.20;2.70;;;;;;;2.59;61.42;98549.66;108160;1287;22206;-81
2022/04/10 01:10:20;;;;;;;7.50;2.80;;;;;;;2.53;61.37;98551.17;108262;1287;22491;-80
2022/04/10 01:13:04;;;;;;;10.60;2.30;;;;;;;2.51;62.34;98547.39;108206;1289;23195;-80
2022/04/10 01:15:56;;;;;;;8.30;3.10;;;;;;;2.51;61.19;98551.08;108249;1288;22365;-80
2022/04/10 01:18:31;;;;;;;6.90;2.60;;;;;;;2.47;61.38;98555.88;108249;1287;22470;-80
2022/04/10 01:21:48;;;;;;;7.60;2.80;;;;;;;2.42;61.46;98557.48;108156;1287;22398;-80
2022/04/10 01:24:49;;;;;;;7.30;2.20;;;;;;;2.39;61.57;98555.69;107504;1293;22500;-81
2022/04/10 01:30:54;;;;;;;7.30;2.70;;;;;;;2.41;62.47;98562.42;108542;1285;22597;-80
2022/04/10 01:33:57;;;;;;;;;;;;;;;;;;;;;
2022/04/10 01:37:47;;;;;;;6.50;2.40;;;;;;;2.44;62.25;98567.75;108549;1285;22434;-81
2022/04/10 01:40:58;;;;;;;;;;;;;;;;;;;;;
2022/04/10 01:44:38;;;;;;;;;;;;;;;;;;;;;
2022/04/10 01:51:19;;;;;;;;;;;;;;;;;;;;;
2022/04/10 01:54:12;;;;;;;5.60;2.10;;;;;;;2.33;62.82;98588.27;106896;1302;22540;-81
2022/04/10 01:58:05;;;;;;;9.90;2.50;;;;;;;2.33;63.31;98594.45;107156;1297;22394;-80
2022/04/10 02:01:52;;;;;;;5.50;2.00;;;;;;;2.32;62.91;98595.71;106844;1302;22442;-80
2022/04/10 02:04:44;;;;;;;;;;;;;;;;;;;;;
2022/04/10 02:11:41;;;;;;;;;;;;;;;;;;;;;
2022/04/10 02:15:01;;;;;;;5.10;2.10;;;;;;;2.29;63.63;98604.63;106890;1302;22201;-81
2022/04/10 02:18:21;;;;;;;;;;;;;;;;;;;;;
2022/04/10 02:21:39;;;;;;;;;;;;;;;;;;;;;
2022/04/10 02:29:02;;;;;;;5.40;2.10;;;;;;;2.38;63.26;98614.96;103205;1309;545786;-83
2022/04/10 02:36:22;;;;;;;;;;;;;;;;;;;;;
2022/04/10 02:39:52;;;;;;;;;;;;;;;;;;;;;
2022/04/10 02:44:05;;;;;;;8.90;1.70;;;;;;;2.29;63.60;98625.56;104390;1292;24261;-81
2022/04/10 02:47:39;;;;;;;;;;;;;;;;;;;;;
2022/04/10 02:50:58;;;;;;;;;;;;;;;;;;;;;
2022/04/10 02:54:06;;;;;;;8.10;2.30;;;;;;;2.16;63.41;98629.65;102924;1312;24269;-83
2022/04/10 02:58:18;;;;;;;5.30;1.70;;;;;;;2.13;63.34;98632.21;102968;1312;22832;-85
2022/04/10 03:05:37;;;;;;;6.70;2.00;;;;;;;2.02;63.20;98632.37;101720;1324;25352;-82
2022/04/10 03:08:53;;;;;;;;;;;;;;;;;;;;;
2022/04/10 03:12:08;;;;;;;;;;;;;;;;;;;;;
2022/04/10 03:15:31;;;;;;;;;;;;;;;;;;;;;
2022/04/10 03:19:47;;;;;;;8.40;2.40;;;;;;;1.94;63.86;98644.49;103090;1310;545118;-85
2022/04/10 03:23:08;;;;;;;;;;;;;;;;;;;;;
2022/04/10 03:26:25;;;;;;;5.90;2.70;;;;;;;1.99;64.08;98650.44;104005;1298;24337;-86
2022/04/10 03:29:38;;;;;;;8.40;2.30;;;;;;;2.01;63.67;98650.87;104020;1298;25374;-81
2022/04/10 03:40:45;;;;;;;5.20;2.30;;;;;;;2.07;63.92;98664.65;104021;1297;22570;-81
2022/04/10 03:47:48;;;;;;;6.10;1.80;;;;;;;2.12;63.73;98678.81;103507;1303;25491;-82
2022/04/10 03:50:59;;;;;;;;;;;;;;;;;;;;;
2022/04/10 03:54:23;;;;;;;;;;;;;;;;;;;;;
2022/04/10 03:58:25;;;;;;;7.20;2.00;;;;;;;2.18;64.47;98688.21;101871;1321;22592;-81
2022/04/10 04:01:59;;;;;;;;;;;;;;;;;;;;;
2022/04/10 04:05:24;;;;;;;4.70;1.60;;;;;;;2.36;64.32;98693.36;101841;1323;25752;-85
2022/04/10 04:08:04;;;;;;;;;;;;;;;;;;;;;
2022/04/10 04:12:02;;;;;;;5.70;1.70;;;;;;;2.54;64.00;98705.40;101628;1324;24315;-83
2022/04/10 04:18:53;;;;;;;;;;;;;;;;;;;;;
2022/04/10 04:22:25;;;;;;;4.80;1.90;;;;;;;2.84;63.49;98713.16;105857;1284;25362;-81
2022/04/10 04:25:29;;;;;;;5.50;1.80;;;;;;;2.86;63.38;98716.44;105605;1284;24292;-84
2022/04/10 04:28:05;;;;;;;6.00;1.60;;;;;;;2.87;63.65;98723.05;105696;1284;22704;-86
2022/04/10 04:31:15;;;;;;;6.80;1.70;;;;;;;2.88;63.32;98722.46;105518;1284;22801;-87
2022/04/10 04:38:27;;;;;;;;;;;;;;;;;;;;;
2022/04/10 04:42:06;;;;;;;;;;;;;;;;;;;;;
2022/04/10 04:45:14;;;;;;;6.70;1.70;;;;;;;3.03;63.42;98742.37;104430;1292;23958;-86
2022/04/10 04:51:36;;;;;;;;;;;;;;;;;;;;;
2022/04/10 04:54:41;;;;;;;7.10;1.80;;;;;;;3.39;63.02;98755.26;105800;1283;22550;-84
2022/04/10 04:58:10;;;;;;;4.80;1.80;;;;;;;3.42;63.07;98755.98;105606;1283;22569;-85
2022/04/10 05:01:57;;;;;;;;;;;;;;;;;;;;;
2022/04/10 05:05:13;;;;;;;;;;;;;;;;;;;;;
2022/04/10 05:08:41;;;;;;;;;;;;;;;;;;;;;
2022/04/10 05:12:35;;;;;;;;;;;;;;;;;;;;;
2022/04/10 05:16:01;;;;;;;;;;;;;;;;;;;;;
2022/04/10 05:20:00;;;;;;;8.50;2.10;;;;;;;3.64;63.12;98774.28;105642;1279;25210;-82
2022/04/10 05:22:34;;;;;;;5.60;1.50;;;;;;;3.71;63.04;98773.79;105674;1279;22556;-82
2022/04/10 05:25:57;;;;;;;;;;;;;;;;;;;;;
2022/04/10 05:29:18;;;;;;;8.70;1.70;;;;;;;3.86;63.04;98785.05;105647;1282;25305;-82
2022/04/10 05:32:41;;;;;;;;;;;;;;;;;;;;;
2022/04/10 05:35:42;;;;;;;6.90;1.60;;;;;;;4.08;62.79;98793.45;105650;1279;25202;-83
2022/04/10 05:38:15;;;;;;;8.70;2.20;;;;;;;4.12;62.69;98803.99;106009;1277;22707;-83
2022/04/10 05:41:07;;;;;;;6.50;1.70;;;;;;;4.17;62.85;98807.98;106410;1271;24356;-84
2022/04/10 05:44:24;;;;;;;4.90;1.50;;;;;;;4.22;62.57;98809.64;106324;1271;25434;-81
2022/04/10 05:47:58;;;;;;;5.30;1.50;;;;;;;4.31;62.56;98813.22;106298;1271;25223;-85
2022/04/10 05:51:51;;;;;;;7.80;1.70;;;;;;;4.28;62.35;98821.70;106336;1274;22560;-87
2022/04/10 05:54:53;;;;;;;;;;;;;;;;;;;;;
2022/04/10 05:58:01;;;;;;;5.70;1.80;;;;;;;4.27;62.39;98827.21;106317;1274;25237;-82
2022/04/10 06:01:40;;;;;;;;;;;;;;;;;;;;;
2022/04/10 06:05:15;;;;;;;7.70;1.60;;;;;;;4.26;62.42;98833.75;105692;1281;22711;-86
2022/04/10 06:11:34;;;;;;;5.80;1.40;;;;;;;4.39;62.07;98833.14;105565;1281;22659;-82
2022/04/10 06:15:26;;;;;;;10.60;2.00;;;;;;;4.47;62.21;98839.06;105517;1281;25244;-83
2022/04/10 06:18:07;;;;;;;7.30;1.80;;;;;;;4.54;62.14;98841.89;105631;1281;25445;-85
2022/04/10 06:21:49;;;;;;;6.40;1.60;;;;;;;4.53;61.90;98845.80;105620;1281;25361;-82
2022/04/10 06:24:40;;;;;;;5.70;1.40;;;;;;;4.53;62.00;98847.37;105100;1287;22557;-87
2022/04/10 06:27:56;;;;;;;6.60;1.50;;;;;;;4.58;61.96;98851.90;104649;1287;22873;-87
2022/04/10 06:31:36;;;;;;;4.50;1.80;;;;;;;4.69;62.30;98854.66;104891;1287;24183;-81
2022/04/10 06:34:15;;;;;;;;;;;;;;;;;;;;;
2022/04/10 06:37:05;;;;;;;6.60;1.80;;;;;;;4.76;62.10;98857.48;104157;1294;22882;-85
2022/04/10 06:40:54;;;;;;;7.60;1.80;;;;;;;4.70;61.90;98858.67;104207;1294;25518;-86
2022/04/10 06:43:56;;;;;;;6.80;1.90;;;;;;;4.56;62.08;98862.90;104166;1300;22693;-85
2022/04/10 06:48:07;;;;;;;;;;;;;;;;;;;;;
2022/04/10 06:55:19;;;;;;;6.80;1.70;;;;;;;4.25;62.30;98867.46;102953;1309;24258;-84
2022/04/10 06:58:50;;;;;;;;;;;;;;;;;;;;;
2022/04/10 07:02:29;;;;;;;6.10;1.30;;;;;;;4.33;61.63;98873.41;103217;1306;23974;-83
2022/04/10 07:05:48;;;;;;;6.20;1.40;;;;;;;4.48;61.54;98873.71;102742;1315;24282;-85
2022/04/10 07:09:09;;;;;;;;;;;;;;;;;;;;;
2022/04/10 07:12:17;;;;;;;6.00;1.30;;;;;;;4.70;61.06;98878.26;102794;1312;23955;-87
2022/04/10 07:16:00;;;;;;;;;;;;;;;;;;;;;
2022/04/10 07:19:46;;;;;;;;;;;;;;;;;;;;;
2022/04/10 07:29:59;;;;;;;6.50;1.10;;;;;;;5.26;60.32;98884.14;102724;1309;22608;-87
2022/04/10 07:33:55;;;;;;;9.20;1.80;;;;;;;5.19;60.23;98884.51;103376;1303;25797;-85
2022/04/10 07:37:07;;;;;;;;;;;;;;;;;;;;;
2022/04/10 07:44:47;;;;;;;7.30;1.30;;;;;;;5.41;59.52;98897.29;103314;1306;24284;-83
2022/04/10 07:51:21;;;;;;;;;;;;;;;;;;;;;
2022/04/10 07:55:22;;;;;;;3.80;1.10;;;;;;;5.40;59.64;98896.30;101935;1321;25613;-80
2022/04/10 07:58:44;;;;;;;7.60;2.20;;;;;;;5.32;59.86;98894.41;102121;1321;25524;-84
2022/04/10 08:10:20;;;;;;;8.00;1.80;;;;;;;5.24;59.64;98911.98;104922;1290;23565;-85
2022/04/10 08:14:20;;;;;;;8.70;1.80;;;;;;;5.53;59.48;98916.95;104650;1292;24775;-85
2022/04/10 08:21:23;;;;;;;;;;;;;;;;;;;;;
2022/04/10 08:25:01;;;;;;;8.50;1.80;;;;;;;5.79;58.71;98918.39;104036;1297;22567;-88
2022/04/10 08:28:41;;;;;;;;;;;;;;;;;;;;;
2022/04/10 08:32:40;;;;;;;;;;;;;;;;;;;;;
2022/04/10 08:36:17;;;;;;;;;;;;;;;;;;;;;
2022/04/10 08:39:15;;;;;;;5.80;1.20;;;;;;;5.42;58.44;98935.90;103903;1302;23939;-83
2022/04/10 08:43:23;;;;;;;;;;;;;;;;;;;;;
2022/04/10 08:50:03;;;;;;;10.10;1.70;;;;;;;6.22;58.70;98936.12;102639;1315;22613;-86
2022/04/10 08:53:35;;;;;;;;;;;;;;;;;;;;;
2022/04/10 09:00:30;;;;;;;;;;;;;;;;;;;;;
2022/04/10 09:11:53;;;;;;;;;;;;;;;;;;;;;
2022/04/10 09:19:33;;;;;;;4.90;1.20;;;;;;;7.04;57.70;98935.45;103552;1306;22836;-89
2022/04/10 09:22:38;;;;;;;;;;;;;;;;;;;;;
2022/04/10 09:41:25;;;;;;;10.80;2.40;;;;;;;7.94;55.70;98922.14;102597;1315;22728;-88
2022/04/10 09:53:03;;;;;;;8.30;1.80;;;;;;;7.13;56.86;98929.98;102582;1315;25887;-89
2022/04/10 10:00:17;;;;;;;9.10;1.60;;;;;;;6.57;55.90;98948.12;102078;1320;22601;-88
2022/04/10 10:03:26;;;;;;;8.80;1.60;;;;;;;6.70;56.67;98941.37;101587;1323;24010;-88
2022/04/10 10:07:38;;;;;;;6.80;1.50;;;;;;;7.23;56.62;98931.64;102337;1317;22653;-89
2022/04/10 10:10:49;;;;;;;;;;;;;;;;;;;;;
2022/04/10 10:14:38;;;;;;;6.70;1.20;;;;;;;8.03;55.50;98929.69;102841;1319;24137;-88
2022/04/10 10:21:10;;;;;;;9.30;1.40;;;;;;;7.25;55.78;98929.58;103406;1309;545599;-89
2022/04/10 10:24:01;;;;;;;8.00;1.10;;;;;;;6.96;55.89;98932.23;106064;1284;26581;-88
2022/04/10 10:27:42;;;;;;;;;;;;;;;;;;;;;
2022/04/10 10:31:01;;;;;;;7.90;1.40;;;;;;;6.47;54.87;98957.23;105807;1284;22575;-90
2022/04/10 10:34:29;;;;;;;;;;;;;;;;;;;;;
2022/04/10 10:37:47;;;;;;;;;;;;;;;;;;;;;
2022/04/10 10:41:34;;;;;;;7.70;1.40;;;;;;;7.30;56.05;98938.52;105134;1292;25285;-87
2022/04/10 10:44:54;;;;;;;7.60;1.90;;;;;;;7.64;55.15;98932.65;104883;1290;22790;-90
2022/04/10 10:48:47;;;;;;;8.50;1.70;;;;;;;7.90;54.99;98927.14;105886;1284;24454;-89
2022/04/10 10:51:34;;;;;;;6.40;1.90;;;;;;;8.46;55.36;98931.57;105592;1284;25228;-90
2022/04/10 10:54:29;;;;;;;9.70;2.50;;;;;;;8.97;53.80;98925.63;105266;1284;22496;-90
2022/04/10 10:57:41;;;;;;;10.90;3.70;;;;;;;9.43;54.02;98926.80;106037;1284;26486;-90
2022/04/10 11:00:21;;;;;;;9.80;2.60;;;;;;;9.50;51.92;98928.26;105660;1283;22587;-88
2022/04/10 11:03:14;;;;;;;9.50;1.80;;;;;;;9.21;52.00;98934.50;105740;1284;22553;-91
2022/04/10 11:06:35;;;;;;;10.10;1.50;;;;;;;8.74;51.68;98928.66;105640;1285;24324;-89
2022/04/10 11:10:29;;;;;;;8.20;1.70;;;;;;;8.11;53.34;98935.17;106843;1284;25478;-92
2022/04/10 11:14:20;;;;;;;9.20;1.70;;;;;;;8.09;53.26;98936.76;105741;1289;22572;-89
2022/04/10 11:17:01;;;;;;;;;;;;;;;;;;;;;
2022/04/10 11:20:02;;;;;;;7.70;1.90;;;;;;;8.06;53.42;98933.79;105777;1287;22573;-91
2022/04/10 11:23:06;;;;;;;;;;;;;;;;;;;;;
2022/04/10 11:26:13;;;;;;;74.20;41.10;;;;;;;8.00;52.38;98935.22;105263;1287;23980;-89
2022/04/10 11:29:20;;;;;;;25.00;14.40;;;;;;;7.94;52.75;98932.23;105237;1287;22644;-89
2022/04/10 11:32:15;;;;;;;19.00;8.40;;;;;;;7.99;54.06;98933.83;105966;1287;25324;-90
2022/04/10 11:35:00;;;;;;;29.00;11.70;;;;;;;8.24;53.94;98934.55;106071;1287;22808;-90
2022/04/10 11:37:52;;;;;;;35.00;15.60;;;;;;;8.80;53.84;98927.52;105522;1287;24256;-91
2022/04/10 11:40:53;;;;;;;18.10;6.80;;;;;;;9.52;53.77;98917.25;105021;1291;22579;-92
2022/04/10 11:43:57;;;;;;;13.00;6.00;;;;;;;10.13;51.58;98914.87;105266;1287;22558;-89
2022/04/10 11:46:33;;;;;;;13.40;7.20;;;;;;;10.30;51.84;98915.06;105131;1287;22568;-88
2022/04/10 11:49:23;;;;;;;9.40;3.90;;;;;;;10.62;51.89;98911.14;106705;1281;23939;-91
2022/04/10 11:52:21;;;;;;;10.40;3.70;;;;;;;10.68;50.74;98911.88;105884;1280;23920;-89
2022/04/10 11:55:24;;;;;;;;;;;;;;;;;;;;;
2022/04/10 11:58:41;;;;;;;8.20;2.40;;;;;;;11.20;49.75;98901.86;106278;1274;22538;-88
2022/04/10 12:01:31;;;;;;;8.10;2.00;;;;;;;10.53;48.43;98910.34;106292;1273;25239;-87
2022/04/10 12:04:52;;;;;;;7.90;2.00;;;;;;;9.75;51.10;98909.58;106460;1274;22550;-90
2022/04/10 12:07:31;;;;;;;8.30;2.20;;;;;;;9.59;51.54;98914.48;106275;1274;24191;-87
2022/04/10 12:10:57;;;;;;;14.50;6.10;;;;;;;9.84;50.68;98911.63;106303;1271;25362;-86
2022/04/10 12:14:02;;;;;;;;;;;;;;;;;;;;;
2022/04/10 12:17:26;;;;;;;13.30;3.60;;;;;;;10.55;52.62;98912.17;106077;1274;24789;-89
2022/04/10 12:20:11;;;;;;;7.40;1.70;;;;;;;10.15;49.65;98916.88;106388;1272;22633;-90
2022/04/10 12:23:38;;;;;;;7.40;1.60;;;;;;;9.94;50.95;98910.71;106318;1271;22616;-89
2022/04/10 12:30:58;;;;;;;8.20;2.00;;;;;;;9.96;50.71;98906.30;106171;1271;22547;-89
2022/04/10 12:34:18;;;;;;;8.90;1.60;;;;;;;9.70;50.92;98909.05;106540;1271;22555;-89
2022/04/10 12:37:40;;;;;;;;;;;;;;;;;;;;;
2022/04/10 12:40:53;;;;;;;12.30;3.10;;;;;;;9.54;50.31;98915.86;105690;1279;22550;-90
2022/04/10 12:43:59;;;;;;;;;;;;;;;;;;;;;
2022/04/10 12:46:41;;;;;;;8.60;2.00;;;;;;;10.22;51.28;98908.52;104786;1288;22572;-87
2022/04/10 12:49:40;;;;;;;;;;;;;;;;;;;;;
2022/04/10 12:52:33;;;;;;;9.80;2.60;;;;;;;10.14;49.56;98902.11;105197;1285;22743;-88
2022/04/10 12:55:23;;;;;;;6.30;1.80;;;;;;;10.07;48.32;98904.40;105077;1284;26595;-86
2022/04/10 12:58:06;;;;;;;5.00;1.10;;;;;;;10.09;50.13;98904.13;105255;1285;22612;-88
2022/04/10 13:01:32;;;;;;;4.40;0.90;;;;;;;10.16;49.37;98903.44;105093;1287;23885;-91
2022/04/10 13:04:42;;;;;;;7.40;1.80;;;;;;;9.94;48.69;98901.48;105067;1287;22547;-88
2022/04/10 13:08:03;;;;;;;5.40;1.50;;;;;;;9.75;48.43;98897.33;105221;1285;22568;-89
2022/04/10 13:10:46;;;;;;;6.40;1.70;;;;;;;9.50;49.05;98898.23;105049;1285;22589;-88
2022/04/10 13:13:19;;;;;;;7.80;2.20;;;;;;;9.33;49.90;98901.69;105070;1285;23919;-88
2022/04/10 13:17:38;;;;;;;8.20;2.70;;;;;;;9.15;49.25;98922.86;105238;1281;22606;-86
2022/04/10 13:20:55;;;;;;;7.40;2.60;;;;;;;8.48;51.38;98925.73;104734;1285;22768;-88
2022/04/10 13:23:35;;;;;;;;;;;;;;;;;;;;;
2022/04/10 13:27:00;;;;;;;12.30;4.40;;;;;;;7.31;52.69;98934.71;106192;1287;22583;-92
2022/04/10 13:29:47;;;;;;;23.80;9.90;;;;;;;6.80;53.63;98948.02;106681;1287;24389;-90
2022/04/10 13:33:00;;;;;;;;;;;;;;;;;;;;;
2022/04/10 13:36:52;;;;;;;;;;;;;;;;;;;;;
2022/04/10 13:40:33;;;;;;;;;;;;;;;;;;;;;
2022/04/10 13:43:37;;;;;;;;;;;;;;;;;;;;;
2022/04/10 13:46:46;;;;;;;19.90;9.10;;;;;;;7.87;54.62;98942.60;108133;1276;22563;-90
2022/04/10 13:50:17;;;;;;;;;;;;;;;;;;;;;
2022/04/10 13:53:13;;;;;;;21.50;10.10;;;;;;;7.78;54.03;98934.31;107467;1282;24222;-91
2022/04/10 13:56:04;;;;;;;15.90;4.80;;;;;;;7.82;54.11;98927.13;108471;1282;22566;-80
2022/04/10 14:05:49;;;;;;;18.40;5.70;;;;;;;8.12;53.61;98935.33;108030;1276;24043;-88
2022/04/10 14:09:00;;;;;;;;;;;;;;;;;;;;;
2022/04/10 14:12:28;;;;;;;;;;;;;;;;;;;;;
2022/04/10 14:16:03;;;;;;;16.20;4.80;;;;;;;9.27;53.63;98947.94;107717;1282;25903;-88
2022/04/10 14:19:13;;;;;;;18.80;5.60;;;;;;;9.60;52.97;98952.27;106759;1287;24225;-89
2022/04/10 14:29:25;;;;;;;10.50;2.90;;;;;;;9.24;53.15;98959.32;107516;1276;22539;-87
2022/04/10 14:32:54;;;;;;;;;;;;;;;;;;;;;
2022/04/10 14:36:29;;;;;;;;;;;;;;;;;;;;;
2022/04/10 14:40:32;;;;;;;11.20;2.90;;;;;;;9.16;53.04;98957.58;106815;1277;25304;-87
2022/04/10 14:42:57;;;;;;;20.00;5.40;;;;;;;9.15;52.86;98952.50;107440;1278;22586;-91
2022/04/10 14:47:10;;;;;;;13.00;4.10;;;;;;;9.24;53.17;98952.05;108468;1276;22534;-90
2022/04/10 14:50:11;;;;;;;;;;;;;;;;;;;;;
2022/04/10 14:53:35;;;;;;;;;;;;;;;;;;;;;
2022/04/10 14:56:40;;;;;;;12.70;4.70;;;;;;;9.21;52.12;98951.71;104445;1294;23933;-87
2022/04/10 15:00:21;;;;;;;9.60;2.60;;;;;;;9.29;51.26;98956.34;104667;1293;24499;-90
2022/04/10 15:03:54;;;;;;;7.90;2.60;;;;;;;8.83;51.68;98957.84;104097;1294;23741;-89
2022/04/10 15:07:18;;;;;;;8.70;1.90;;;;;;;8.38;51.60;98961.84;103981;1303;23991;-89
2022/04/10 15:10:58;;;;;;;;;;;;;;;;;;;;;
2022/04/10 15:17:20;;;;;;;;;;;;;;;;;;;;;
2022/04/10 15:20:52;;;;;;;7.20;1.80;;;;;;;5.75;54.37;99038.88;102752;1313;25358;-83
2022/04/10 15:23:45;;;;;;;;;;;;;;;;;;;;;
2022/04/10 15:31:43;;;;;;;9.40;3.10;;;;;;;4.90;55.93;99049.95;102786;1311;24287;-85
2022/04/10 15:34:28;;;;;;;12.30;4.00;;;;;;;4.67;55.46;99038.36;102901;1314;24083;-84
2022/04/10 15:37:32;;;;;;;5.40;1.80;;;;;;;4.52;56.22;99040.29;102581;1313;22583;-90
2022/04/10 15:45:49;;;;;;;10.60;2.70;;;;;;;5.67;55.02;99028.02;102137;1317;545646;-89
2022/04/10 15:49:22;;;;;;;22.00;5.00;;;;;;;6.36;53.84;99026.78;103733;1303;24390;-87
2022/04/10 15:53:00;;;;;;;;;;;;;;;;;;;;;
2022/04/10 15:56:34;;;;;;;;;;;;;;;;;;;;;
2022/04/10 16:00:53;;;;;;;5.20;1.20;;;;;;;7.38;53.49;99017.70;102877;1312;546011;-89
2022/04/10 16:04:26;;;;;;;;;;;;;;;;;;;;;
2022/04/10 16:07:26;;;;;;;7.40;2.20;;;;;;;8.58;53.54;99010.80;105834;1283;22579;-90
2022/04/10 16:10:36;;;;;;;7.50;2.30;;;;;;;9.04;53.15;99017.57;105207;1286;23918;-90
2022/04/10 16:13:55;;;;;;;;;;;;;;;;;;;;;
2022/04/10 16:16:59;;;;;;;;;;;;;;;;;;;;;
2022/04/10 16:24:35;;;;;;;;;;;;;;;;;;;;;
2022/04/10 16:31:49;;;;;;;;;;;;;;;;;;;;;
2022/04/10 16:35:41;;;;;;;7.60;2.30;;;;;;;6.57;55.37;99043.31;102961;1310;22887;-89
2022/04/10 16:39:08;;;;;;;;;;;;;;;;;;;;;
2022/04/10 16:43:07;;;;;;;12.50;4.80;;;;;;;6.29;55.69;99037.41;102919;1313;25437;-89
2022/04/10 16:46:28;;;;;;;;;;;;;;;;;;;;;
2022/04/10 16:50:02;;;;;;;;;;;;;;;;;;;;;
2022/04/10 16:53:45;;;;;;;11.30;4.20;;;;;;;5.89;56.07;99027.73;103216;1312;545573;-90
2022/04/10 16:57:19;;;;;;;;;;;;;;;;;;;;;
2022/04/10 17:00:42;;;;;;;21.10;7.40;;;;;;;5.43;56.40;99032.94;104447;1292;25939;-90
2022/04/10 17:03:56;;;;;;;9.80;2.70;;;;;;;5.29;56.39;99037.00;104446;1292;24246;-88
2022/04/10 17:07:27;;;;;;;;;;;;;;;;;;;;;
2022/04/10 17:10:40;;;;;;;10.00;3.60;;;;;;;5.05;56.23;99044.94;104753;1292;24812;-89
2022/04/10 17:13:44;;;;;;;9.30;3.40;;;;;;;4.99;56.56;99045.80;104794;1292;26537;-88
2022/04/10 17:17:54;;;;;;;8.50;2.50;;;;;;;4.90;56.89;99044.65;103936;1298;24606;-88
2022/04/10 17:21:24;;;;;;;15.60;7.20;;;;;;;4.82;56.55;99044.31;103864;1298;24211;-90
2022/04/10 17:24:34;;;;;;;;;;;;;;;;;;;;;
2022/04/10 17:28:40;;;;;;;12.40;3.50;;;;;;;4.61;56.69;99051.30;102965;1309;545042;-85
2022/04/10 17:32:18;;;;;;;18.80;4.90;;;;;;;4.50;56.90;99056.08;105823;1286;24077;-88
2022/04/10 17:42:59;;;;;;;;;;;;;;;;;;;;;
2022/04/10 17:51:02;;;;;;;13.90;3.70;;;;;;;3.99;57.27;99076.59;104033;1303;22903;-86
2022/04/10 17:54:29;;;;;;;;;;;;;;;;;;;;;
2022/04/10 17:57:50;;;;;;;10.00;2.70;;;;;;;3.91;56.92;99080.50;105000;1297;25373;-88
2022/04/10 18:12:33;;;;;;;;;;;;;;;;;;;;;
2022/04/10 18:16:10;;;;;;;;;;;;;;;;;;;;;
2022/04/10 18:19:38;;;;;;;;;;;;;;;;;;;;;
2022/04/10 18:23:25;;;;;;;;;;;;;;;;;;;;;
2022/04/10 18:30:47;;;;;;;10.70;3.20;;;;;;;3.40;57.71;99124.59;105506;1284;25280;-86
2022/04/10 18:34:37;;;;;;;;;;;;;;;;;;;;;
2022/04/10 18:38:23;;;;;;;;;;;;;;;;;;;;;
2022/04/10 18:41:50;;;;;;;;;;;;;;;;;;;;;
2022/04/10 18:52:50;;;;;;;13.00;4.60;;;;;;;3.18;58.25;99162.79;103886;1297;22602;-89
2022/04/10 18:56:31;;;;;;;11.80;3.80;;;;;;;3.16;58.29;99165.86;104455;1294;25428;-89
2022/04/10 18:59:45;;;;;;;;;;;;;;;;;;;;;
2022/04/10 19:11:59;;;;;;;10.10;3.20;;;;;;;3.49;58.39;99181.26;102923;1311;545818;-88
2022/04/10 19:15:37;;;;;;;10.30;3.20;;;;;;;3.47;58.27;99179.91;104326;1294;25596;-86
2022/04/10 19:30:24;;;;;;;16.10;5.00;;;;;;;3.32;58.71;99198.13;102836;1315;22747;-88
2022/04/10 19:40:56;;;;;;;10.40;3.30;;;;;;;3.17;58.84;99199.27;101196;1333;24693;-87
2022/04/10 19:45:19;;;;;;;;;;;;;;;;;;;;;
2022/04/10 19:56:06;;;;;;;;;;;;;;;;;;;;;
2022/04/10 19:59:43;;;;;;;;;;;;;;;;;;;;;
2022/04/10 20:03:47;;;;;;;10.80;3.60;;;;;;;3.11;59.17;99199.15;104093;1294;22563;-89
2022/04/10 20:11:00;;;;;;;18.70;6.70;;;;;;;3.13;59.58;99193.09;103575;1303;22811;-88
2022/04/10 20:15:02;;;;;;;17.30;6.00;;;;;;;3.19;59.56;99189.71;103294;1307;25386;-87
2022/04/10 20:18:21;;;;;;;33.20;11.30;;;;;;;3.19;59.63;99181.61;102619;1316;22589;-89
2022/04/10 20:22:10;;;;;;;;;;;;;;;;;;;;;
2022/04/10 20:29:26;;;;;;;;;;;;;;;;;;;;;
2022/04/10 20:33:07;;;;;;;15.20;5.50;;;;;;;3.14;59.59;99197.82;101608;1325;26081;-88
2022/04/10 20:45:15;;;;;;;23.70;8.20;;;;;;;3.03;59.76;99206.86;102740;1315;559627;-89
2022/04/10 20:48:51;;;;;;;;;;;;;;;;;;;;;
2022/04/10 20:52:21;;;;;;;15.00;4.60;;;;;;;2.86;60.02;99210.50;103774;1300;22727;-86
2022/04/10 20:59:59;;;;;;;;;;;;;;;;;;;;;
2022/04/10 21:12:08;;;;;;;10.30;3.50;;;;;;;2.74;60.59;99235.77;105008;1288;24787;-87
2022/04/10 21:34:48;;;;;;;10.90;3.70;;;;;;;2.58;60.49;99240.08;102918;1310;545639;-88
2022/04/10 21:38:21;;;;;;;11.70;3.20;;;;;;;2.53;60.62;99244.61;104415;1292;24712;-88
2022/04/10 21:41:32;;;;;;;18.20;5.50;;;;;;;2.49;60.58;99245.30;104497;1292;23397;-87
2022/04/10 21:45:13;;;;;;;;;;;;;;;;;;;;;
2022/04/10 21:48:26;;;;;;;;;;;;;;;;;;;;;
2022/04/10 21:51:59;;;;;;;12.30;3.30;;;;;;;2.58;60.77;99253.94;102939;1309;22601;-90
2022/04/10 21:55:19;;;;;;;;;;;;;;;;;;;;;
2022/04/10 21:58:40;;;;;;;;;;;;;;;;;;;;;
2022/04/10 22:02:00;;;;;;;;;;;;;;;;;;;;;
2022/04/10 22:05:22;;;;;;;6.00;1.90;;;;;;;3.07;61.60;99271.24;103000;1309;22728;-88
2022/04/10 22:09:25;;;;;;;11.40;2.80;;;;;;;3.00;61.45;99272.77;103159;1310;22564;-88
2022/04/10 22:20:38;;;;;;;7.00;2.30;;;;;;;2.76;61.84;99274.54;101607;1321;22585;-87
2022/04/10 22:24:25;;;;;;;8.80;2.40;;;;;;;2.60;61.88;99278.27;101812;1321;22662;-89
2022/04/10 22:34:44;;;;;;;;;;;;;;;;;;;;;
2022/04/10 22:38:21;;;;;;;;;;;;;;;;;;;;;
2022/04/10 22:50:20;;;;;;;6.30;1.90;;;;;;;2.70;62.33;99290.94;104579;1292;25230;-86
2022/04/10 22:53:23;;;;;;;;;;;;;;;;;;;;;
2022/04/10 23:01:03;;;;;;;;;;;;;;;;;;;;;
2022/04/10 23:04:30;;;;;;;;;;;;;;;;;;;;;
2022/04/10 23:15:52;;;;;;;;;;;;;;;;;;;;;
2022/04/10 23:19:55;;;;;;;5.50;1.40;;;;;;;2.21;63.06;99304.61;105268;1286;23186;-88
2022/04/10 23:22:57;;;;;;;5.30;1.10;;;;;;;2.12;63.77;99311.58;104308;1292;25900;-90
2022/04/10 23:30:14;;;;;;;;;;;;;;;;;;;;;
2022/04/10 23:45:53;;;;;;;6.30;1.30;;;;;;;1.70;63.55;99333.67;102299;1317;547214;-85
2022/04/10 23:49:41;;;;;;;4.90;0.80;;;;;;;1.61;63.70;99331.00;104075;1297;22569;-90
